Time;durP1;ratioP1;P1;durP2;ratioP2;P2;SDS_P1;SDS_P2;PMS_P1;PMS_P2;Temp;Humidity;BMP_temperature;BMP_pressure;BME280_temperature;BME280_humidity;BME280_pressure;Samples;Min_cycle;Max_cycle;Signal;HPM_P1;HPM_P2
2024/01/09 00:01:52;;;;;;;12.77;11.88;;;-2.00;99.90;;;;;;5068138;28;20044;-89
2024/01/09 00:04:18;;;;;;;12.85;11.95;;;-2.00;99.90;;;;;;5081012;28;20047;-91
2024/01/09 00:06:44;;;;;;;13.40;12.30;;;-2.00;99.90;;;;;;5060863;28;20048;-88
2024/01/09 00:09:20;;;;;;;13.40;12.48;;;-2.00;99.90;;;;;;5068083;28;20062;-91
2024/01/09 00:11:58;;;;;;;14.68;13.63;;;-2.00;99.90;;;;;;5063083;28;20032;-91
2024/01/09 00:14:33;;;;;;;15.77;14.45;;;-2.00;99.90;;;;;;5090678;28;20040;-90
2024/01/09 00:17:20;;;;;;;13.57;12.57;;;-2.10;99.90;;;;;;5065318;28;20040;-91
2024/01/09 00:19:57;;;;;;;12.02;11.32;;;-2.20;99.90;;;;;;5084815;28;20040;-89
2024/01/09 00:22:58;;;;;;;14.93;13.57;;;-2.20;99.90;;;;;;5085581;28;20753;-91
2024/01/09 00:25:39;;;;;;;14.95;13.75;;;-2.20;99.90;;;;;;5047344;28;20040;-91
2024/01/09 00:28:18;;;;;;;12.45;11.63;;;-2.20;99.90;;;;;;5038633;28;20040;-92
2024/01/09 00:31:05;;;;;;;14.30;13.25;;;-2.20;99.90;;;;;;5047770;28;20041;-91
2024/01/09 00:34:16;;;;;;;13.93;12.63;;;-2.30;99.90;;;;;;5050624;28;20029;-91
2024/01/09 00:40:40;;;;;;;14.32;13.13;;;-2.30;99.90;;;;;;5033213;28;20100;-91
2024/01/09 00:43:36;;;;;;;;;;;;;;;;;;;;;
2024/01/09 00:46:11;;;;;;;14.65;13.43;;;-2.40;99.90;;;;;;5037247;28;20045;-92
2024/01/09 00:48:40;;;;;;;15.52;14.35;;;-2.40;99.90;;;;;;5020814;28;20041;-92
2024/01/09 00:51:17;;;;;;;14.35;13.23;;;-2.40;99.90;;;;;;5020444;28;20141;-92
2024/01/09 00:53:54;;;;;;;16.10;14.80;;;-2.40;99.90;;;;;;5018988;28;20517;-93
2024/01/09 00:56:37;;;;;;;15.38;14.18;;;-2.50;99.90;;;;;;5026434;28;20041;-92
2024/01/09 00:59:03;;;;;;;15.68;14.48;;;-2.50;99.90;;;;;;5022958;28;20061;-93
2024/01/09 01:01:28;;;;;;;12.98;11.98;;;-2.50;99.90;;;;;;5025042;28;20072;-91
2024/01/09 01:04:03;;;;;;;15.10;13.90;;;-2.60;99.90;;;;;;5042911;28;20084;-91
2024/01/09 01:06:28;;;;;;;15.40;14.05;;;-2.60;99.90;;;;;;5033244;28;20115;-92
2024/01/09 01:08:58;;;;;;;15.32;14.32;;;-2.50;99.90;;;;;;5028520;28;20061;-92
2024/01/09 01:11:30;;;;;;;15.18;13.98;;;-2.60;99.90;;;;;;5021281;28;20049;-92
2024/01/09 01:13:58;;;;;;;15.93;14.82;;;-2.50;99.90;;;;;;5030721;28;20394;-91
2024/01/09 01:16:24;;;;;;;14.98;13.88;;;-2.50;99.90;;;;;;5035474;28;20811;-92
2024/01/09 01:19:34;;;;;;;16.05;14.57;;;-2.50;99.90;;;;;;5043527;28;20048;-92
2024/01/09 01:21:59;;;;;;;13.25;12.52;;;-2.60;99.90;;;;;;5065741;28;20045;-90
2024/01/09 01:24:28;;;;;;;15.45;14.40;;;-2.60;99.90;;;;;;5065071;28;20584;-90
2024/01/09 01:26:54;;;;;;;16.10;14.93;;;-2.60;99.90;;;;;;5081314;27;20133;-89
2024/01/09 01:29:19;;;;;;;14.70;13.60;;;-2.60;99.90;;;;;;5108947;27;20118;-90
2024/01/09 01:31:45;;;;;;;14.20;13.00;;;-2.60;99.90;;;;;;5086016;28;20031;-90
2024/01/09 01:34:15;;;;;;;16.77;15.57;;;-2.60;99.90;;;;;;5087697;27;20031;-91
2024/01/09 01:36:41;;;;;;;15.40;14.40;;;-2.70;99.90;;;;;;5086900;27;20445;-90
2024/01/09 01:39:07;;;;;;;14.75;13.45;;;-2.70;99.90;;;;;;5137549;27;20043;-91
2024/01/09 01:41:36;;;;;;;14.57;13.55;;;-2.70;99.90;;;;;;5085099;27;20036;-90
2024/01/09 01:44:10;;;;;;;14.48;13.30;;;-2.80;99.90;;;;;;5113917;27;20065;-91
2024/01/09 01:46:36;;;;;;;16.40;15.20;;;-2.80;99.90;;;;;;5082586;27;20372;-90
2024/01/09 01:49:02;;;;;;;15.85;14.35;;;-2.90;99.90;;;;;;5136915;27;20051;-89
2024/01/09 01:51:27;;;;;;;14.50;13.50;;;-2.90;99.90;;;;;;5095508;27;20042;-89
2024/01/09 01:53:53;;;;;;;14.35;13.25;;;-2.80;99.90;;;;;;5106811;28;20035;-90
2024/01/09 01:56:19;;;;;;;15.52;14.30;;;-2.90;99.90;;;;;;5099966;27;20059;-89
2024/01/09 01:58:45;;;;;;;16.42;15.13;;;-2.80;99.90;;;;;;5084913;27;20039;-89
2024/01/09 02:01:11;;;;;;;15.35;14.35;;;-2.80;99.90;;;;;;5115801;27;20047;-89
2024/01/09 02:03:37;;;;;;;17.63;16.33;;;-2.90;99.90;;;;;;5140194;27;20087;-89
2024/01/09 02:06:04;;;;;;;15.60;14.50;;;-2.90;99.90;;;;;;5129769;27;20439;-89
2024/01/09 02:08:31;;;;;;;15.95;14.95;;;-2.90;99.90;;;;;;5077476;28;20043;-89
2024/01/09 02:10:57;;;;;;;17.35;16.00;;;-2.90;99.90;;;;;;5096504;28;20479;-89
2024/01/09 02:13:23;;;;;;;16.23;15.15;;;-2.90;99.90;;;;;;5096564;28;20040;-88
2024/01/09 02:15:49;;;;;;;13.60;12.80;;;-2.90;99.90;;;;;;5074671;27;20040;-88
2024/01/09 02:18:15;;;;;;;14.07;12.95;;;-2.90;99.90;;;;;;5094008;28;20120;-88
2024/01/09 02:20:40;;;;;;;15.73;14.50;;;-2.90;99.90;;;;;;5082568;27;20043;-88
2024/01/09 02:23:06;;;;;;;14.07;12.98;;;-2.90;99.90;;;;;;5121318;27;20058;-88
2024/01/09 02:25:32;;;;;;;16.13;14.93;;;-2.90;99.90;;;;;;5082679;27;20223;-87
2024/01/09 02:28:05;;;;;;;15.48;14.45;;;-2.90;99.90;;;;;;5121661;27;20050;-88
2024/01/09 02:30:31;;;;;;;16.67;15.35;;;-2.90;99.90;;;;;;5095181;27;20039;-87
2024/01/09 02:32:57;;;;;;;15.80;14.50;;;-2.90;99.90;;;;;;5116791;27;20035;-87
2024/01/09 02:35:23;;;;;;;15.15;14.23;;;-3.00;99.90;;;;;;5102402;27;20407;-87
2024/01/09 02:37:49;;;;;;;14.75;13.93;;;-3.00;99.90;;;;;;5077113;28;20051;-87
2024/01/09 02:40:14;;;;;;;14.75;13.75;;;-3.00;99.90;;;;;;5093961;27;20384;-86
2024/01/09 02:42:40;;;;;;;15.10;14.10;;;-3.00;99.90;;;;;;5081315;28;20078;-86
2024/01/09 02:45:06;;;;;;;17.02;15.63;;;-3.00;99.90;;;;;;5093684;27;20056;-87
2024/01/09 02:47:31;;;;;;;18.05;16.80;;;-3.00;99.90;;;;;;5096771;28;20048;-87
2024/01/09 02:49:57;;;;;;;14.73;13.73;;;-3.00;99.90;;;;;;5119293;27;20502;-86
2024/01/09 02:52:23;;;;;;;14.95;13.80;;;-3.00;99.90;;;;;;5092385;28;20544;-86
2024/01/09 02:54:49;;;;;;;16.65;15.55;;;-3.00;99.90;;;;;;5100264;27;20456;-86
2024/01/09 02:57:15;;;;;;;15.70;14.60;;;-3.00;99.90;;;;;;5108724;27;20044;-86
2024/01/09 02:59:41;;;;;;;15.05;13.88;;;-3.00;99.90;;;;;;5105239;27;20057;-87
2024/01/09 03:02:07;;;;;;;15.00;14.00;;;-3.10;99.90;;;;;;5114063;27;20039;-86
2024/01/09 03:04:32;;;;;;;14.30;13.20;;;-3.10;99.90;;;;;;5101219;27;20046;-86
2024/01/09 03:06:58;;;;;;;21.58;15.00;;;-3.10;99.90;;;;;;5145175;27;20046;-85
2024/01/09 03:09:24;;;;;;;15.60;14.50;;;-3.10;99.90;;;;;;5082503;28;20040;-85
2024/01/09 03:11:50;;;;;;;17.42;16.13;;;-3.10;99.90;;;;;;5100269;28;20381;-85
2024/01/09 03:14:16;;;;;;;16.05;14.95;;;-3.10;99.90;;;;;;5080693;27;20091;-85
2024/01/09 03:16:42;;;;;;;14.13;13.13;;;-3.10;99.90;;;;;;5076706;28;20046;-85
2024/01/09 03:19:07;;;;;;;17.85;16.27;;;-3.20;99.90;;;;;;5128031;27;20043;-86
2024/01/09 03:21:33;;;;;;;17.20;15.90;;;-3.20;99.90;;;;;;5121047;27;20039;-85
2024/01/09 03:23:58;;;;;;;15.32;14.40;;;-3.30;99.90;;;;;;5081938;28;20066;-85
2024/01/09 03:26:24;;;;;;;16.83;15.63;;;-3.30;99.90;;;;;;5114630;27;20046;-85
2024/01/09 03:28:50;;;;;;;16.45;15.30;;;-3.40;99.90;;;;;;5100590;27;20043;-84
2024/01/09 03:31:23;;;;;;;15.30;14.20;;;-3.40;99.90;;;;;;5122327;27;20523;-85
2024/01/09 03:33:49;;;;;;;15.15;14.15;;;-3.40;99.90;;;;;;5119432;27;20039;-84
2024/01/09 03:36:15;;;;;;;14.18;13.32;;;-3.40;99.90;;;;;;5089547;28;20047;-84
2024/01/09 03:38:45;;;;;;;17.48;16.13;;;-3.40;99.90;;;;;;5070663;28;20122;-84
2024/01/09 03:41:11;;;;;;;16.42;15.10;;;-3.40;99.90;;;;;;5093853;28;20073;-84
2024/01/09 03:43:37;;;;;;;16.75;15.55;;;-3.40;99.90;;;;;;5087857;28;20050;-84
2024/01/09 03:46:03;;;;;;;16.35;15.20;;;-3.40;99.90;;;;;;5089270;28;20065;-84
2024/01/09 03:48:29;;;;;;;18.40;17.08;;;-3.40;99.90;;;;;;5082561;28;20057;-84
2024/01/09 03:50:54;;;;;;;14.80;13.70;;;-3.50;99.90;;;;;;5120637;28;20043;-84
2024/01/09 03:53:20;;;;;;;15.98;14.88;;;-3.50;99.90;;;;;;5102205;28;20042;-84
2024/01/09 03:55:46;;;;;;;14.95;13.98;;;-3.50;99.90;;;;;;5074898;28;20051;-84
2024/01/09 03:58:12;;;;;;;15.48;14.40;;;-3.50;99.90;;;;;;5091614;28;20035;-84
2024/01/09 04:00:38;;;;;;;16.58;15.27;;;-3.50;99.90;;;;;;5138973;27;20399;-83
2024/01/09 04:03:04;;;;;;;16.27;14.98;;;-3.50;99.90;;;;;;5079885;28;20044;-84
2024/01/09 04:05:30;;;;;;;16.42;15.13;;;-3.60;99.90;;;;;;5116175;28;20070;-83
2024/01/09 04:07:56;;;;;;;15.05;13.95;;;-3.50;99.90;;;;;;5083912;28;20529;-83
2024/01/09 04:10:21;;;;;;;14.77;13.70;;;-3.50;99.90;;;;;;5125208;27;20045;-84
2024/01/09 04:12:47;;;;;;;14.13;13.18;;;-3.50;99.90;;;;;;5084314;28;20043;-83
2024/01/09 04:15:13;;;;;;;13.95;13.05;;;-3.50;99.90;;;;;;5102911;28;20058;-83
2024/01/09 04:17:39;;;;;;;17.35;16.02;;;-3.50;99.90;;;;;;5107434;28;20031;-83
2024/01/09 04:20:05;;;;;;;13.68;12.82;;;-3.50;99.90;;;;;;5095616;28;20036;-83
2024/01/09 04:22:31;;;;;;;20.42;19.02;;;-3.40;99.90;;;;;;5138631;27;20055;-83
2024/01/09 04:24:56;;;;;;;15.77;14.50;;;-3.50;99.90;;;;;;5124687;28;20054;-83
2024/01/09 04:27:22;;;;;;;14.75;13.80;;;-3.50;99.90;;;;;;5140879;27;20137;-82
2024/01/09 04:29:48;;;;;;;14.93;13.82;;;-3.60;99.90;;;;;;5105729;28;20035;-82
2024/01/09 04:32:14;;;;;;;14.52;13.48;;;-3.50;99.90;;;;;;5090527;28;20036;-82
2024/01/09 04:34:39;;;;;;;14.68;13.43;;;-3.50;99.90;;;;;;5075911;28;20606;-82
2024/01/09 04:37:05;;;;;;;15.55;14.27;;;-3.60;99.90;;;;;;5075206;28;20417;-83
2024/01/09 04:39:31;;;;;;;13.60;12.70;;;-3.60;99.90;;;;;;5071947;28;20064;-82
2024/01/09 04:41:56;;;;;;;15.05;13.95;;;-3.60;99.90;;;;;;5109684;28;20035;-82
2024/01/09 04:44:22;;;;;;;14.48;13.57;;;-3.70;99.90;;;;;;5097455;28;20039;-83
2024/01/09 04:46:47;;;;;;;14.43;13.02;;;-3.60;99.90;;;;;;5085973;28;20427;-82
2024/01/09 04:49:13;;;;;;;14.15;13.25;;;-3.60;99.90;;;;;;5102651;28;20112;-82
2024/01/09 04:51:40;;;;;;;15.07;14.07;;;-3.60;99.90;;;;;;5077232;28;20039;-82
2024/01/09 04:54:06;;;;;;;14.25;13.30;;;-3.60;99.90;;;;;;5084414;28;20085;-82
2024/01/09 04:56:31;;;;;;;15.25;14.25;;;-3.60;99.90;;;;;;5100211;28;20032;-82
2024/01/09 04:58:57;;;;;;;16.15;14.95;;;-3.60;99.90;;;;;;5103136;28;20085;-82
2024/01/09 05:01:23;;;;;;;15.48;14.43;;;-3.60;99.90;;;;;;5088579;27;20043;-81
2024/01/09 05:03:50;;;;;;;14.45;13.43;;;-3.60;99.90;;;;;;5071945;28;20055;-81
2024/01/09 05:06:16;;;;;;;14.80;13.80;;;-3.60;99.90;;;;;;5105950;28;20419;-80
2024/01/09 05:08:42;;;;;;;15.25;14.23;;;-3.70;99.90;;;;;;5077408;28;20054;-81
2024/01/09 05:11:08;;;;;;;20.42;19.20;;;-3.70;99.90;;;;;;5095563;28;20036;-81
2024/01/09 05:13:34;;;;;;;15.32;14.27;;;-3.70;99.90;;;;;;5078193;28;20036;-81
2024/01/09 05:15:59;;;;;;;15.15;14.25;;;-3.70;99.90;;;;;;5080819;28;20039;-81
2024/01/09 05:18:25;;;;;;;15.02;13.93;;;-3.80;99.90;;;;;;5096542;28;20040;-81
2024/01/09 05:20:51;;;;;;;14.65;13.75;;;-3.80;99.90;;;;;;5082758;28;20071;-81
2024/01/09 05:23:16;;;;;;;15.48;14.38;;;-3.70;99.90;;;;;;5093284;28;20052;-81
2024/01/09 05:25:42;;;;;;;17.38;16.02;;;-3.70;99.90;;;;;;5074251;28;20090;-80
2024/01/09 05:28:08;;;;;;;17.00;15.77;;;-3.70;99.90;;;;;;5062807;28;20039;-80
2024/01/09 05:30:33;;;;;;;15.73;14.18;;;-3.70;99.90;;;;;;5101348;28;20031;-81
2024/01/09 05:32:59;;;;;;;14.90;14.00;;;-3.80;99.90;;;;;;5055943;28;20039;-80
2024/01/09 05:35:25;;;;;;;14.25;13.35;;;-3.80;99.90;;;;;;5063002;28;20048;-80
2024/01/09 05:37:50;;;;;;;16.40;15.10;;;-3.80;99.90;;;;;;5084768;28;20507;-80
2024/01/09 05:40:17;;;;;;;17.27;16.10;;;-3.80;99.90;;;;;;5091225;28;20091;-80
2024/01/09 05:42:43;;;;;;;16.83;15.50;;;-3.80;99.90;;;;;;5058092;28;20101;-80
2024/01/09 05:45:10;;;;;;;16.50;15.38;;;-3.80;99.90;;;;;;5088369;28;20037;-80
2024/01/09 05:47:35;;;;;;;16.25;15.13;;;-3.90;99.90;;;;;;5072286;28;20788;-80
2024/01/09 05:50:01;;;;;;;16.48;15.48;;;-3.90;99.90;;;;;;5084504;28;20036;-80
2024/01/09 05:52:27;;;;;;;14.77;13.77;;;-3.90;99.90;;;;;;5064137;28;20035;-80
2024/01/09 05:54:52;;;;;;;17.88;16.65;;;-3.90;99.90;;;;;;5074151;28;20044;-79
2024/01/09 05:57:18;;;;;;;22.00;20.60;;;-3.90;99.90;;;;;;5070575;28;20035;-79
2024/01/09 05:59:44;;;;;;;15.77;14.63;;;-3.80;99.90;;;;;;5057734;28;20036;-79
2024/01/09 06:02:10;;;;;;;14.23;13.32;;;-3.80;99.90;;;;;;5080880;28;20050;-79
2024/01/09 06:04:35;;;;;;;14.95;13.82;;;-3.80;99.90;;;;;;5054928;28;20040;-80
2024/01/09 06:07:01;;;;;;;15.73;14.30;;;-3.90;99.90;;;;;;5080652;28;20035;-79
2024/01/09 06:09:27;;;;;;;16.85;15.48;;;-3.90;99.90;;;;;;5062009;28;20110;-79
2024/01/09 06:11:52;;;;;;;14.32;13.35;;;-3.90;99.90;;;;;;5063098;28;20046;-79
2024/01/09 06:14:18;;;;;;;14.77;13.77;;;-3.90;99.90;;;;;;5073514;28;20043;-79
2024/01/09 06:16:44;;;;;;;15.50;14.38;;;-3.90;99.90;;;;;;5055619;28;20039;-78
2024/01/09 06:19:09;;;;;;;15.20;14.10;;;-3.90;99.90;;;;;;5063810;28;20040;-78
2024/01/09 06:21:35;;;;;;;15.65;14.45;;;-4.00;99.90;;;;;;5069738;28;20044;-79
2024/01/09 06:24:00;;;;;;;15.02;13.93;;;-4.00;99.90;;;;;;5056905;28;20066;-79
2024/01/09 06:26:26;;;;;;;14.80;13.68;;;-4.10;99.90;;;;;;5067394;28;20527;-79
2024/01/09 06:28:52;;;;;;;14.98;13.88;;;-4.00;99.90;;;;;;5062773;28;20079;-79
2024/01/09 06:31:17;;;;;;;14.00;13.10;;;-4.10;99.90;;;;;;5107816;28;20074;-78
2024/01/09 06:33:43;;;;;;;15.65;14.55;;;-4.10;99.90;;;;;;5063150;28;20075;-78
2024/01/09 06:36:08;;;;;;;14.75;13.60;;;-4.10;99.90;;;;;;5062569;28;20050;-78
2024/01/09 06:38:34;;;;;;;15.68;14.55;;;-4.20;99.90;;;;;;5074384;28;20038;-78
2024/01/09 06:41:00;;;;;;;13.65;12.65;;;-4.20;99.90;;;;;;5079280;28;20083;-78
2024/01/09 06:43:25;;;;;;;14.88;13.90;;;-4.20;99.90;;;;;;5065025;28;20048;-78
2024/01/09 06:45:51;;;;;;;14.13;13.13;;;-4.20;99.90;;;;;;5072678;28;20039;-78
2024/01/09 06:48:16;;;;;;;14.95;13.95;;;-4.20;99.90;;;;;;5070847;28;20035;-78
2024/01/09 06:50:42;;;;;;;14.25;13.25;;;-4.20;99.90;;;;;;5049427;28;20074;-78
2024/01/09 06:53:08;;;;;;;13.35;12.30;;;-4.30;99.90;;;;;;5084247;28;20915;-78
2024/01/09 06:55:33;;;;;;;14.07;13.18;;;-4.30;99.90;;;;;;5085134;28;20032;-78
2024/01/09 06:57:59;;;;;;;15.77;14.48;;;-4.20;99.90;;;;;;5049794;28;20040;-77
2024/01/09 07:00:25;;;;;;;14.10;13.05;;;-4.30;99.90;;;;;;5061720;28;20061;-77
2024/01/09 07:02:50;;;;;;;21.27;19.98;;;-4.30;99.90;;;;;;5057811;28;20093;-77
2024/01/09 07:05:16;;;;;;;31.33;29.63;;;-4.20;99.90;;;;;;5057543;28;20048;-77
2024/01/09 07:07:42;;;;;;;13.90;12.82;;;-4.20;99.90;;;;;;5077921;28;20028;-77
2024/01/09 07:10:08;;;;;;;14.40;13.35;;;-4.20;99.90;;;;;;5075803;28;20036;-77
2024/01/09 07:12:35;;;;;;;17.60;16.27;;;-4.20;99.90;;;;;;5070623;28;20047;-76
2024/01/09 07:15:01;;;;;;;14.30;13.30;;;-4.20;99.90;;;;;;5074913;28;20051;-77
2024/01/09 07:17:26;;;;;;;15.38;13.85;;;-4.20;99.90;;;;;;5066739;28;20040;-77
2024/01/09 07:19:52;;;;;;;16.98;15.70;;;-4.20;99.90;;;;;;5061698;28;20035;-76
2024/01/09 07:22:17;;;;;;;14.00;13.00;;;-4.20;99.90;;;;;;5052797;28;20533;-77
2024/01/09 07:24:43;;;;;;;15.45;14.35;;;-4.20;99.90;;;;;;5061862;28;20039;-77
2024/01/09 07:27:09;;;;;;;15.27;14.20;;;-4.30;99.90;;;;;;5098506;28;20046;-77
2024/01/09 07:29:34;;;;;;;13.77;12.77;;;-4.30;99.90;;;;;;5054047;28;20047;-77
2024/01/09 07:32:00;;;;;;;15.80;14.43;;;-4.30;99.90;;;;;;5060021;28;20488;-76
2024/01/09 07:34:25;;;;;;;15.43;14.27;;;-4.40;99.90;;;;;;5066903;28;20040;-76
2024/01/09 07:36:51;;;;;;;14.57;13.57;;;-4.30;99.90;;;;;;5069101;28;20040;-77
2024/01/09 07:39:16;;;;;;;13.35;12.35;;;-4.30;99.90;;;;;;5051126;28;20039;-76
2024/01/09 07:41:43;;;;;;;15.38;14.10;;;-4.40;99.90;;;;;;5087191;28;20036;-76
2024/01/09 07:44:09;;;;;;;15.00;13.68;;;-4.30;99.90;;;;;;5091369;28;20047;-76
2024/01/09 07:46:34;;;;;;;14.18;13.15;;;-4.40;99.90;;;;;;5075918;28;20051;-76
2024/01/09 07:49:03;;;;;;;15.43;14.30;;;-4.40;99.90;;;;;;5062210;28;20042;-76
2024/01/09 07:51:29;;;;;;;15.60;14.30;;;-4.40;99.90;;;;;;5058021;28;20073;-76
2024/01/09 07:53:54;;;;;;;15.18;14.02;;;-4.40;99.90;;;;;;5062433;28;20040;-76
2024/01/09 07:56:21;;;;;;;14.60;13.50;;;-4.40;99.90;;;;;;5105045;28;20510;-76
2024/01/09 07:58:47;;;;;;;16.38;15.05;;;-4.40;99.90;;;;;;5050480;28;20044;-76
2024/01/09 08:01:13;;;;;;;14.80;13.43;;;-4.40;99.90;;;;;;5053249;28;20579;-76
2024/01/09 08:03:43;;;;;;;16.30;15.05;;;-4.40;99.90;;;;;;5080048;28;20032;-76
2024/01/09 08:06:13;;;;;;;15.20;14.05;;;-4.40;99.90;;;;;;5070597;28;20044;-75
2024/01/09 08:08:39;;;;;;;13.40;12.60;;;-4.30;99.90;;;;;;5078707;28;20483;-76
2024/01/09 08:11:08;;;;;;;14.27;13.23;;;-4.30;99.90;;;;;;5056885;28;20107;-75
2024/01/09 08:13:34;;;;;;;17.02;15.63;;;-4.30;99.90;;;;;;5067561;28;20028;-75
2024/01/09 08:16:00;;;;;;;15.30;14.20;;;-4.30;99.90;;;;;;5057487;28;20055;-75
2024/01/09 08:18:26;;;;;;;15.63;14.52;;;-4.30;99.90;;;;;;5085502;28;20056;-75
2024/01/09 08:20:51;;;;;;;15.40;14.23;;;-4.20;99.90;;;;;;5073025;28;20094;-75
2024/01/09 08:23:17;;;;;;;15.95;14.82;;;-4.10;99.90;;;;;;5072340;28;20087;-75
2024/01/09 08:25:43;;;;;;;16.05;14.75;;;-4.00;99.90;;;;;;5062251;28;20134;-75
2024/01/09 08:28:09;;;;;;;16.08;14.75;;;-4.00;99.90;;;;;;5050091;28;20051;-75
2024/01/09 08:30:35;;;;;;;16.50;15.30;;;-3.90;99.90;;;;;;5043117;28;20488;-75
2024/01/09 08:33:00;;;;;;;16.88;15.65;;;-3.80;99.90;;;;;;5051630;28;20040;-75
2024/01/09 08:35:26;;;;;;;13.90;12.85;;;-3.60;99.90;;;;;;5047647;28;20050;-75
2024/01/09 08:37:51;;;;;;;13.63;12.73;;;-3.60;99.90;;;;;;5075615;28;20512;-75
2024/01/09 08:40:17;;;;;;;14.65;13.55;;;-3.50;99.90;;;;;;5078837;28;20036;-75
2024/01/09 08:42:43;;;;;;;14.18;13.20;;;-3.50;99.90;;;;;;5072195;28;20762;-75
2024/01/09 08:45:09;;;;;;;14.15;13.18;;;-3.40;99.90;;;;;;5064308;28;20056;-75
2024/01/09 08:47:35;;;;;;;13.73;12.63;;;-3.40;99.90;;;;;;5055254;28;20119;-75
2024/01/09 08:50:02;;;;;;;12.95;12.02;;;-3.30;99.90;;;;;;5049491;28;20050;-75
2024/01/09 08:52:27;;;;;;;14.30;13.23;;;-3.30;99.90;;;;;;5065413;28;20135;-75
2024/01/09 08:54:53;;;;;;;14.23;13.15;;;-3.20;99.90;;;;;;5053453;28;20155;-76
2024/01/09 08:57:20;;;;;;;15.20;13.57;;;-3.30;99.90;;;;;;5069688;28;20040;-76
2024/01/09 08:59:46;;;;;;;17.88;15.90;;;-3.20;99.90;;;;;;5079622;28;20040;-76
2024/01/09 09:02:11;;;;;;;13.48;12.48;;;-3.20;99.90;;;;;;5083761;28;20453;-76
2024/01/09 09:04:37;;;;;;;13.07;12.10;;;-3.10;99.90;;;;;;5069438;28;20079;-77
2024/01/09 09:07:03;;;;;;;13.13;12.13;;;-3.10;99.90;;;;;;5077591;28;20068;-77
2024/01/09 09:09:30;;;;;;;11.43;10.68;;;-3.10;99.90;;;;;;5078901;28;20032;-77
2024/01/09 09:11:58;;;;;;;15.25;13.95;;;-3.00;99.90;;;;;;5085056;28;20162;-78
2024/01/09 09:14:24;;;;;;;13.15;11.95;;;-3.00;99.90;;;;;;5065223;28;20036;-78
2024/01/09 09:16:50;;;;;;;11.98;11.07;;;-2.90;99.90;;;;;;5066119;28;20488;-78
2024/01/09 09:19:17;;;;;;;13.93;12.63;;;-2.90;99.90;;;;;;5084157;28;20079;-79
2024/01/09 09:21:43;;;;;;;14.77;13.48;;;-2.80;99.90;;;;;;5071839;28;20037;-78
2024/01/09 09:24:09;;;;;;;11.20;10.40;;;-2.80;99.90;;;;;;5083633;28;20495;-78
2024/01/09 09:26:35;;;;;;;13.10;12.07;;;-2.60;99.90;;;;;;5095967;28;20048;-77
2024/01/09 09:29:01;;;;;;;13.45;12.40;;;-2.60;99.90;;;;;;5078900;28;20035;-78
2024/01/09 09:31:27;;;;;;;11.27;10.48;;;-2.50;99.90;;;;;;5081141;28;20385;-77
2024/01/09 09:33:54;;;;;;;11.50;10.50;;;-2.50;99.90;;;;;;5102032;28;20042;-77
2024/01/09 09:36:20;;;;;;;12.43;11.32;;;-2.40;99.90;;;;;;5099669;28;20092;-77
2024/01/09 09:38:46;;;;;;;11.93;10.93;;;-2.40;99.90;;;;;;5100480;28;20047;-77
2024/01/09 09:41:16;;;;;;;11.07;10.18;;;-2.40;99.90;;;;;;5089489;28;20058;-78
2024/01/09 09:43:48;;;;;;;10.98;10.07;;;-2.30;99.90;;;;;;5090440;28;20036;-78
2024/01/09 09:46:23;;;;;;;11.00;10.32;;;-2.20;99.90;;;;;;5087740;28;20091;-78
2024/01/09 09:48:52;;;;;;;12.75;11.80;;;-2.10;99.90;;;;;;5104710;28;20038;-79
2024/01/09 09:51:18;;;;;;;12.20;11.30;;;-2.20;99.90;;;;;;5075590;28;20446;-79
2024/01/09 09:53:44;;;;;;;11.52;10.65;;;-2.10;99.90;;;;;;5073317;28;20075;-80
2024/01/09 09:56:14;;;;;;;11.40;10.60;;;-2.00;99.90;;;;;;5090081;28;20068;-81
2024/01/09 09:58:41;;;;;;;11.63;10.52;;;-2.00;99.90;;;;;;5074866;28;20440;-82
2024/01/09 10:01:10;;;;;;;10.90;10.20;;;-2.00;99.90;;;;;;5065604;28;20126;-83
2024/01/09 10:03:40;;;;;;;11.05;10.25;;;-1.90;99.90;;;;;;5094355;28;20511;-83
2024/01/09 10:06:07;;;;;;;10.10;9.40;;;-1.90;99.90;;;;;;5089198;28;20040;-84
2024/01/09 10:08:34;;;;;;;10.13;9.48;;;-1.80;99.90;;;;;;5083562;28;20407;-84
2024/01/09 10:11:01;;;;;;;11.20;10.20;;;-1.70;99.90;;;;;;5083442;28;20682;-85
2024/01/09 10:13:27;;;;;;;11.52;10.65;;;-1.70;99.90;;;;;;5078438;28;20042;-85
2024/01/09 10:16:01;;;;;;;11.43;10.48;;;-1.60;99.90;;;;;;5094959;28;20040;-86
2024/01/09 10:18:31;;;;;;;10.75;9.93;;;-1.50;99.90;;;;;;5085179;28;20047;-86
2024/01/09 10:21:01;;;;;;;10.88;10.07;;;-1.50;99.90;;;;;;5097151;28;20056;-87
2024/01/09 10:23:27;;;;;;;12.07;11.10;;;-1.40;99.90;;;;;;5077202;28;20571;-87
2024/01/09 10:25:54;;;;;;;11.52;10.73;;;-1.30;99.90;;;;;;5103738;28;20503;-87
2024/01/09 10:28:19;;;;;;;10.77;9.98;;;-1.30;99.90;;;;;;5078664;28;20458;-87
2024/01/09 10:30:45;;;;;;;11.27;10.57;;;-1.20;99.90;;;;;;5088306;28;20142;-86
2024/01/09 10:33:12;;;;;;;11.38;10.60;;;-1.10;99.90;;;;;;5088699;28;20774;-86
2024/01/09 10:35:39;;;;;;;10.88;10.18;;;-1.10;99.90;;;;;;5076088;28;20088;-87
2024/01/09 10:38:05;;;;;;;11.35;10.57;;;-1.00;99.90;;;;;;5090537;28;20032;-87
2024/01/09 10:40:30;;;;;;;11.25;10.35;;;-1.00;99.90;;;;;;5078910;28;20380;-84
2024/01/09 10:42:57;;;;;;;11.68;10.88;;;-0.90;99.90;;;;;;5080159;28;20515;-87
2024/01/09 10:45:29;;;;;;;11.90;10.95;;;-0.90;99.90;;;;;;5085847;28;20441;-85
2024/01/09 10:48:03;;;;;;;11.07;10.18;;;-1.00;99.90;;;;;;5091767;28;20069;-85
2024/01/09 10:50:29;;;;;;;;;;;-0.90;99.90;;;;;;5105381;28;20047;-86
2024/01/09 10:52:56;;;;;;;10.05;9.45;;;-0.80;99.90;;;;;;5105799;28;20264;-85
2024/01/09 10:55:23;;;;;;;10.75;9.98;;;-0.70;99.90;;;;;;5140706;27;20039;-85
2024/01/09 10:57:49;;;;;;;9.48;8.88;;;-0.70;99.90;;;;;;5095796;28;20070;-84
2024/01/09 11:00:16;;;;;;;11.65;10.75;;;-0.60;99.90;;;;;;5107434;28;20451;-83
2024/01/09 11:02:42;;;;;;;9.90;9.10;;;-0.60;99.90;;;;;;5079875;28;20055;-84
2024/01/09 11:05:13;;;;;;;11.55;10.65;;;-0.50;99.90;;;;;;5086062;28;20052;-84
2024/01/09 11:07:42;;;;;;;10.57;9.88;;;-0.50;99.90;;;;;;5095449;28;20052;-84
2024/01/09 11:10:14;;;;;;;10.10;9.40;;;-0.50;99.90;;;;;;5104323;27;20052;-83
2024/01/09 11:12:44;;;;;;;10.70;9.75;;;-0.40;99.90;;;;;;5097095;28;20044;-83
2024/01/09 11:15:19;;;;;;;9.90;9.30;;;-0.30;99.90;;;;;;5074138;28;20043;-82
2024/01/09 11:17:48;;;;;;;9.65;9.05;;;-0.20;99.90;;;;;;5096223;28;20048;-82
2024/01/09 11:20:16;;;;;;;10.82;10.02;;;-0.20;99.90;;;;;;5095927;28;20399;-82
2024/01/09 11:22:42;;;;;;;9.50;8.90;;;-0.10;99.90;;;;;;5097434;28;20056;-83
2024/01/09 11:25:18;;;;;;;8.98;8.23;;;0.00;99.90;;;;;;5087882;28;20056;-80
2024/01/09 11:27:50;;;;;;;10.73;9.93;;;0.00;99.90;;;;;;5076415;28;20471;-79
2024/01/09 11:30:17;;;;;;;9.57;8.73;;;0.10;99.90;;;;;;5073156;28;20048;-80
2024/01/09 11:32:45;;;;;;;9.63;8.82;;;0.10;99.90;;;;;;5077998;28;20036;-80
2024/01/09 11:35:17;;;;;;;9.25;8.65;;;0.10;99.90;;;;;;5088476;28;20039;-80
2024/01/09 11:37:51;;;;;;;8.82;8.30;;;0.30;99.90;;;;;;5095008;28;20050;-80
2024/01/09 11:40:21;;;;;;;8.73;8.13;;;0.30;99.90;;;;;;5073274;28;20051;-80
2024/01/09 11:42:51;;;;;;;9.52;8.88;;;0.40;99.90;;;;;;5083267;28;20043;-80
2024/01/09 11:45:25;;;;;;;9.10;8.50;;;0.40;99.90;;;;;;5094140;28;20043;-81
2024/01/09 11:47:53;;;;;;;9.57;8.88;;;0.50;99.90;;;;;;5096068;28;20035;-80
2024/01/09 11:50:19;;;;;;;9.45;8.75;;;0.60;99.90;;;;;;5098331;28;20040;-80
2024/01/09 11:52:47;;;;;;;9.73;9.05;;;0.50;99.90;;;;;;5082254;28;20046;-81
2024/01/09 11:55:14;;;;;;;8.50;7.90;;;0.50;99.90;;;;;;5083679;28;20490;-81
2024/01/09 11:57:43;;;;;;;9.43;8.63;;;0.60;99.90;;;;;;5066449;28;20039;-81
2024/01/09 12:00:14;;;;;;;9.93;9.25;;;0.60;99.90;;;;;;5068534;28;20048;-83
2024/01/09 12:02:40;;;;;;;9.00;8.30;;;0.60;99.90;;;;;;5070546;28;20040;-82
2024/01/09 12:05:07;;;;;;;9.50;8.77;;;0.70;99.90;;;;;;5071233;28;20071;-81
2024/01/09 12:07:34;;;;;;;8.77;8.18;;;0.70;99.90;;;;;;5116031;27;20145;-82
2024/01/09 12:10:01;;;;;;;9.10;8.50;;;0.80;99.90;;;;;;5065629;28;20032;-82
2024/01/09 12:12:27;;;;;;;10.63;9.55;;;0.80;99.90;;;;;;5090410;28;20036;-82
2024/01/09 12:14:58;;;;;;;9.18;8.30;;;0.80;99.90;;;;;;5067477;28;20043;-82
2024/01/09 12:17:33;;;;;;;8.82;8.20;;;0.80;99.90;;;;;;5085049;28;20032;-82
2024/01/09 12:19:59;;;;;;;9.38;8.68;;;0.90;99.90;;;;;;5117821;27;20031;-82
2024/01/09 12:22:25;;;;;;;9.38;8.57;;;1.10;99.90;;;;;;5072610;28;20052;-81
2024/01/09 12:24:51;;;;;;;9.50;8.70;;;1.10;99.90;;;;;;5052615;28;20075;-83
2024/01/09 12:27:20;;;;;;;9.13;8.18;;;1.00;99.90;;;;;;5066096;28;20044;-82
2024/01/09 12:29:46;;;;;;;8.57;7.78;;;0.90;99.90;;;;;;5073750;28;20036;-83
2024/01/09 12:32:13;;;;;;;7.85;7.07;;;0.90;99.90;;;;;;5073290;28;20082;-83
2024/01/09 12:34:39;;;;;;;8.50;7.97;;;1.10;99.90;;;;;;5064494;28;20040;-82
2024/01/09 12:37:08;;;;;;;8.32;7.68;;;1.10;99.90;;;;;;5056758;28;20056;-83
2024/01/09 12:39:36;;;;;;;9.50;8.70;;;1.10;99.90;;;;;;5061628;28;20044;-83